Latest Coastal Weather Observations for Troughton Island

IDW60701

Issued at 7:32 am WST Thursday 30 June 2016 (issued every 10 minutes, with the page automatically refreshed every 10 minutes)

About coastal observations | Map of coastal stations | Coastal observations for WA | Marine services | Other Formats
Station Details ID: 001007 Name: TROUGHTON ISLAND Lat: -13.75 Lon: 126.15 Height: 6.0 m
Data from the previous 72 hours. | See also: Recent months at Troughton Island
Date/Time
WST
Temp
°C
Wind Pressure Rain since
9am
mm
Weather Cloud Vis
km
Sea
Height
m
Swell
Dir  Spd
kts
Gust
kts
hPa Trend Height
m
Period
s
Dir
30/07:30am 27.2 E 15 19 1016.3 - 0.0 - - - - - - -
30/07:00am 26.8 ESE 14 17 1016.0 - 0.0 - - - - - - -
30/06:30am 26.2 ESE 15 17 1015.8 - 0.0 - - - - - - -
30/06:00am 25.8 ESE 13 16 1015.5 - 0.0 - - - - - - -
30/05:30am 25.9 ESE 14 17 1015.3 - 0.0 - - - - - - -
30/05:00am 25.4 ESE 13 15 1015.1 - 0.0 - - - - - - -
30/04:30am 25.4 ESE 12 15 1015.1 - 0.0 - - - - - - -
30/04:00am 25.6 SE 12 14 1015.1 - 0.0 - - - - - - -
30/03:30am 25.6 SE 11 13 1015.1 - 0.0 - - - - - - -
30/03:00am 26.3 ESE 12 14 1015.3 - 0.0 - - - - - - -
30/02:30am 26.3 ESE 12 14 1015.4 - 0.0 - - - - - - -
30/02:00am 26.7 E 11 14 1015.5 - 0.0 - - - - - - -
30/01:30am 27.0 E 13 16 1015.8 - 0.0 - - - - - - -
30/01:00am 27.2 E 14 17 1016.0 - 0.0 - - - - - - -
30/12:30am 27.2 E 14 17 1016.0 - 0.0 - - - - - - -
30/12:00am 27.5 E 14 17 1016.4 - 0.0 - - - - - - -
 
Date/Time
WST
Temp
°C
Wind Pressure Rain since
9am
mm
Weather Cloud Vis
km
Sea
Height
m
Swell
Dir  Spd
kts
Gust
kts
hPa Trend Height
m
Period
s
Dir
29/11:30pm 27.5 E 14 16 1016.4 - 0.0 - - - - - - -
29/11:00pm 27.4 E 14 17 1016.6 - 0.0 - - - - - - -
29/10:30pm 27.2 E 13 17 1016.9 - 0.0 - - - - - - -
29/10:00pm 27.1 E 15 17 1017.2 - 0.0 - - - - - - -
29/09:30pm 27.5 ENE 15 17 1017.1 - 0.0 - - - - - - -
29/09:00pm 27.5 ENE 14 17 1017.0 - 0.0 - - - - - - -
29/08:30pm 27.8 NE 15 19 1016.8 - 0.0 - - - - - - -
29/08:00pm 28.0 NE 15 19 1016.5 - 0.0 - - - - - - -
29/07:30pm 27.8 NE 16 20 1016.4 - 0.0 - - - - - - -
29/07:00pm 27.6 NE 16 20 1016.0 - 0.0 - - - - - - -
29/06:30pm 27.5 NE 16 20 1015.5 - 0.0 - - - - - - -
29/06:00pm 27.4 NE 15 18 1015.2 - 0.0 - - - - - - -
29/05:30pm 27.3 ENE 15 17 1014.9 - 0.0 - - - - - - -
29/05:00pm 27.5 ENE 15 17 1014.7 - 0.0 - - - - - - -
29/04:30pm 27.7 ENE 17 21 1014.4 - 0.0 - - - - - - -
29/04:00pm 27.9 ENE 17 20 1014.1 - 0.0 - - - - - - -
29/03:30pm 28.1 ENE 18 21 1013.9 - 0.0 - - - - - - -
29/03:00pm 28.5 ENE 20 24 1013.6 - 0.0 - - - - - - -
29/02:30pm 28.4 ENE 21 24 1013.6 - 0.0 - - - - - - -
29/02:00pm 28.7 ENE 21 26 1013.5 - 0.0 - - - - - - -
29/01:30pm 28.7 ENE 21 26 1013.8 - 0.0 - - - - - - -
29/01:00pm 28.8 E 23 28 1013.9 - 0.0 - - - - - - -
29/12:30pm 28.7 E 24 29 1014.2 - 0.0 - - - - - - -
29/12:00pm 28.8 E 24 30 1014.6 - 0.0 - - - - - - -
29/11:30am 29.5 E 23 28 1015.1 - 0.0 - - - - - - -
29/11:00am 29.4 E 23 30 1015.7 - 0.0 - - - - - - -
29/10:30am 29.0 E 24 29 1016.2 - 0.0 - - - - - - -
29/10:09am 28.5 E 19 29 1016.3 - 0.0 - - - - - - -
29/10:00am 28.5 E 20 24 1016.4 - 0.0 - - - - - - -
29/09:30am 28.2 E 22 27 1016.5 - 0.0 - - - - - - -
29/09:00am 27.8 E 22 27 1016.6 - 0.0 - - - - - - -
29/08:30am 27.6 E 23 28 1016.6 - 0.0 - - - - - - -
29/08:00am 27.3 E 25 30 1016.7 - 0.0 - - - - - - -
29/07:30am 27.4 E 21 29 1016.4 - 0.0 - - - - - - -
29/07:00am 27.5 ESE 23 29 1015.9 - 0.0 - - - - - - -
29/06:30am 27.3 ESE 23 28 1015.7 - 0.0 - - - - - - -
29/06:00am 27.2 ESE 21 26 1015.4 - 0.0 - - - - - - -
29/05:30am 27.4 ESE 21 26 1015.0 - 0.0 - - - - - - -
29/05:00am 27.4 ESE 20 23 1014.9 - 0.0 - - - - - - -
29/04:30am 27.2 ESE 17 20 1014.9 - 0.0 - - - - - - -
29/04:00am 27.1 ESE 17 21 1014.7 - 0.0 - - - - - - -
29/03:30am 27.0 ESE 16 19 1014.4 - 0.0 - - - - - - -
29/03:00am 26.9 ESE 15 18 1014.4 - 0.0 - - - - - - -
29/02:30am 27.1 ESE 13 15 1014.5 - 0.0 - - - - - - -
29/02:00am 27.0 ESE 12 14 1014.8 - 0.0 - - - - - - -
29/01:30am 27.1 ESE 12 14 1015.0 - 0.0 - - - - - - -
29/01:00am 27.3 E 11 13 1015.2 - 0.0 - - - - - - -
29/12:30am 27.3 ESE 11 14 1015.4 - 0.0 - - - - - - -
29/12:00am 27.2 E 12 14 1015.6 - 0.0 - - - - - - -
 
Date/Time
WST
Temp
°C
Wind Pressure Rain since
9am
mm
Weather Cloud Vis
km
Sea
Height
m
Swell
Dir  Spd
kts
Gust
kts
hPa Trend Height
m
Period
s
Dir
28/11:30pm 27.2 E 11 13 1015.6 - 0.0 - - - - - - -
28/11:00pm 27.4 E 11 13 1015.8 - 0.0 - - - - - - -
28/10:30pm 27.3 E 11 13 1015.9 - 0.0 - - - - - - -
28/10:00pm 27.2 E 13 15 1016.0 - 0.0 - - - - - - -
28/09:30pm 27.1 E 15 17 1016.2 - 0.0 - - - - - - -
28/09:00pm 27.3 E 16 19 1016.3 - 0.0 - - - - - - -
28/08:30pm 27.4 E 17 20 1016.1 - 0.0 - - - - - - -
28/08:00pm 27.4 E 17 20 1016.0 - 0.0 - - - - - - -
28/07:30pm 27.4 E 17 20 1015.9 - 0.0 - - - - - - -
28/07:00pm 27.5 E 18 21 1015.6 - 0.0 - - - - - - -
28/06:30pm 27.6 ENE 18 22 1015.1 - 0.0 - - - - - - -
28/06:00pm 27.7 ENE 18 22 1014.7 - 0.0 - - - - - - -
28/05:30pm 27.9 ENE 20 24 1014.1 - 0.0 - - - - - - -
28/05:00pm 28.0 ENE 19 23 1013.8 - 0.0 - - - - - - -
28/04:30pm 28.5 ENE 19 23 1013.5 - 0.0 - - - - - - -
28/04:00pm 28.9 ENE 19 23 1013.2 - 0.0 - - - - - - -
28/03:30pm 29.2 ENE 19 22 1012.9 - 0.0 - - - - - - -
28/03:00pm 29.2 ENE 18 22 1012.8 - 0.0 - - - - - - -
28/02:30pm 29.8 ENE 18 21 1012.7 - 0.0 - - - - - - -
28/02:00pm 29.9 ENE 18 21 1012.7 - 0.0 - - - - - - -
28/01:30pm 29.7 E 17 22 1012.9 - 0.0 - - - - - - -
28/01:00pm 30.1 ENE 19 22 1013.0 - 0.0 - - - - - - -
28/12:30pm 30.1 E 19 23 1013.3 - 0.0 - - - - - - -
28/12:00pm 30.7 E 19 22 1013.5 - 0.0 - - - - - - -
28/11:30am 31.0 E 19 22 1013.9 - 0.0 - - - - - - -
28/11:00am 30.1 E 16 20 1014.3 - 0.0 - - - - - - -
28/10:30am 30.2 ESE 16 21 1014.5 - 0.0 - - - - - - -
28/10:00am 29.6 ESE 20 24 1014.7 - 0.0 - - - - - - -
28/09:30am 29.2 ESE 21 26 1014.7 - 0.0 - - - - - - -
28/09:00am 28.6 ESE 22 26 1014.8 - 0.0 - - - - - - -
28/08:30am 28.2 ESE 22 28 1014.6 - 0.0 - - - - - - -
28/08:00am 28.0 ESE 23 28 1014.3 - 0.0 - - - - - - -
28/07:30am 27.8 E 21 26 1014.1 - 0.0 - - - - - - -
28/07:00am 27.5 ESE 21 24 1013.7 - 0.0 - - - - - - -
28/06:30am 27.2 ESE 21 26 1013.3 - 0.0 - - - - - - -
28/06:00am 27.4 ESE 21 25 1013.2 - 0.0 - - - - - - -
28/05:30am 27.6 ESE 18 23 1012.8 - 0.0 - - - - - - -
28/05:00am 27.6 ESE 19 22 1012.5 - 0.0 - - - - - - -
28/04:30am 27.6 ESE 17 20 1012.3 - 0.0 - - - - - - -
28/04:00am 27.6 ESE 13 17 1012.2 - 0.0 - - - - - - -
28/03:30am 27.7 ESE 14 16 1012.1 - 0.0 - - - - - - -
28/03:00am 27.6 ESE 13 15 1012.2 - 0.0 - - - - - - -
28/02:30am 27.7 ESE 12 15 1012.2 - 0.0 - - - - - - -
28/02:00am 27.4 ESE 12 14 1012.4 - 0.0 - - - - - - -
28/01:30am 27.9 ESE 11 13 1012.6 - 0.0 - - - - - - -
28/01:00am 27.9 ESE 13 15 1013.0 - 0.0 - - - - - - -
28/12:30am 28.2 E 13 15 1013.3 - 0.0 - - - - - - -
28/12:00am 28.4 E 13 15 1013.5 - 0.0 - - - - - - -
 
Date/Time
WST
Temp
°C
Wind Pressure Rain since
9am
mm
Weather Cloud Vis
km
Sea
Height
m
Swell
Dir  Spd
kts
Gust
kts
hPa Trend Height
m
Period
s
Dir
27/11:30pm 28.4 E 14 16 1013.6 - 0.0 - - - - - - -
27/11:00pm 28.5 E 15 17 1013.7 - 0.0 - - - - - - -
27/10:30pm 28.5 E 15 18 1013.8 - 0.0 - - - - - - -
27/10:00pm 28.6 E 15 19 1014.1 - 0.0 - - - - - - -
27/09:30pm 28.8 E 17 21 1014.2 - 0.0 - - - - - - -
27/09:00pm 28.9 ENE 19 22 1014.1 - 0.0 - - - - - - -
27/08:30pm 28.8 ENE 17 21 1013.9 - 0.0 - - - - - - -
27/08:00pm 28.7 ENE 19 21 1013.8 - 0.0 - - - - - - -
27/07:30pm 28.8 ENE 19 22 1013.5 - 0.0 - - - - - - -
27/07:00pm 28.7 ENE 19 23 1013.1 - 0.0 - - - - - - -
27/06:30pm 28.4 ENE 20 23 1012.7 - 0.0 - - - - - - -
27/06:00pm 28.4 ENE 20 23 1012.2 - 0.0 - - - - - - -
27/05:30pm 28.3 ENE 20 24 1011.9 - 0.0 - - - - - - -
27/05:00pm 28.2 ENE 20 25 1011.6 - 0.0 - - - - - - -
27/04:30pm 28.7 ENE 19 23 1011.3 - 0.0 - - - - - - -
27/04:00pm 28.7 ENE 20 24 1011.0 - 0.0 - - - - - - -
27/03:30pm 29.0 ENE 18 21 1010.8 - 0.0 - - - - - - -
27/03:00pm 29.3 ENE 18 23 1010.8 - 0.0 - - - - - - -
27/02:30pm 29.4 ENE 17 21 1010.7 - 0.0 - - - - - - -
27/02:00pm 29.7 ENE 17 21 1010.9 - 0.0 - - - - - - -
27/01:30pm 30.5 ENE 16 20 1011.2 - 0.0 - - - - - - -
27/01:00pm 30.8 ENE 14 17 1011.4 - 0.0 - - - - - - -
27/12:30pm 30.8 E 9 11 1011.9 - 0.0 - - - - - - -
27/12:00pm 30.9 E 9 11 1012.3 - 0.0 - - - - - - -
27/11:30am 30.8 E 10 13 1012.6 - 0.0 - - - - - - -
27/11:00am 30.8 E 10 12 1012.9 - 0.0 - - - - - - -
27/10:30am 30.9 ESE 12 14 1013.1 - 0.0 - - - - - - -
27/10:00am 30.4 ESE 12 15 1013.2 - 0.0 - - - - - - -
27/09:30am 30.0 ESE 11 14 1013.3 - 0.0 - - - - - - -
27/09:00am 29.3 ESE 12 15 1013.4 - 0.0 - - - - - - -
27/08:30am 28.3 ESE 14 16 1013.6 - 0.0 - - - - - - -
27/08:00am 27.9 SE 13 16 1013.4 - 0.0 - - - - - - -

Other Formats:

Comma delimited format used in spreadsheet applications
http://www.bom.gov.au/fwo/IDW60701/IDW60701.94102.axf

JavaScript Object Notation format (JSON) in row-major order
http://www.bom.gov.au/fwo/IDW60701/IDW60701.94102.json